createdAt,value
2019-04-16T00:01:53.987Z,13.12
2019-04-16T00:04:38.203Z,13.08
2019-04-16T00:07:25.981Z,13.03
2019-04-16T00:10:15.203Z,13.00
2019-04-16T00:12:50.345Z,13.00
2019-04-16T00:15:20.905Z,12.99
2019-04-16T00:17:50.803Z,12.97
2019-04-16T00:20:20.732Z,12.94
2019-04-16T00:23:00.568Z,12.92
2019-04-16T00:25:31.827Z,12.85
2019-04-16T00:28:01.844Z,12.82
2019-04-16T00:30:35.490Z,12.79
2019-04-16T00:33:03.334Z,12.80
2019-04-16T00:35:33.176Z,12.77
2019-04-16T00:38:02.957Z,12.73
2019-04-16T00:40:32.734Z,12.69
2019-04-16T00:43:02.675Z,12.68
2019-04-16T00:45:32.885Z,12.66
2019-04-16T00:48:02.716Z,12.61
2019-04-16T00:50:32.648Z,12.58
2019-04-16T00:53:07.629Z,12.56
2019-04-16T00:55:34.415Z,12.53
2019-04-16T00:58:05.743Z,12.49
2019-04-16T01:00:35.767Z,12.48
2019-04-16T01:03:05.731Z,12.44
2019-04-16T01:05:35.862Z,12.40
2019-04-16T01:08:05.860Z,12.38
2019-04-16T01:10:35.635Z,12.34
2019-04-16T01:13:05.581Z,12.31
2019-04-16T01:15:35.684Z,12.24
2019-04-16T01:18:08.057Z,12.19
2019-04-16T01:20:37.246Z,12.15
2019-04-16T01:23:07.068Z,12.11
2019-04-16T01:25:36.932Z,12.09
2019-04-16T01:28:10.020Z,12.08
2019-04-16T01:31:08.086Z,12.03
2019-04-16T01:33:47.430Z,11.96
2019-04-16T01:36:29.671Z,11.91
2019-04-16T01:39:14.738Z,11.87
2019-04-16T01:41:34.727Z,11.82
2019-04-16T01:44:05.763Z,11.77
2019-04-16T01:46:35.768Z,11.73
2019-04-16T01:49:09.732Z,11.70
2019-04-16T01:51:37.819Z,11.63
2019-04-16T01:54:07.801Z,11.60
2019-04-16T01:56:37.661Z,11.59
2019-04-16T01:59:07.514Z,11.56
2019-04-16T02:01:37.406Z,11.53
2019-04-16T02:04:07.268Z,11.51
2019-04-16T02:06:37.207Z,11.47
2019-04-16T02:09:21.263Z,11.44
2019-04-16T02:11:41.413Z,11.41
2019-04-16T02:14:10.659Z,11.36
2019-04-16T02:16:40.567Z,11.32
2019-04-16T02:19:10.496Z,11.27
2019-04-16T02:21:41.457Z,11.25
2019-04-16T02:24:12.225Z,11.20
2019-04-16T02:26:42.047Z,11.15
2019-04-16T02:29:12.017Z,11.09
2019-04-16T02:31:41.935Z,11.07
2019-04-16T02:34:11.797Z,11.02
2019-04-16T02:36:41.710Z,10.95
2019-04-16T02:39:11.519Z,10.91
2019-04-16T02:41:41.730Z,10.90
2019-04-16T02:44:16.349Z,10.85
2019-04-16T02:46:43.240Z,10.83
2019-04-16T02:49:13.195Z,10.79
2019-04-16T02:51:49.136Z,10.78
2019-04-16T02:54:41.043Z,10.75
2019-04-16T02:57:29.886Z,10.74
2019-04-16T03:00:02.991Z,10.73
2019-04-16T03:02:48.602Z,10.73
2019-04-16T03:05:35.360Z,10.70
2019-04-16T03:08:05.973Z,10.70
2019-04-16T03:10:37.359Z,10.69
2019-04-16T03:13:07.293Z,10.66
2019-04-16T03:16:05.857Z,10.68
2019-04-16T03:18:48.374Z,10.67
2019-04-16T03:21:18.250Z,10.65
2019-04-16T03:23:48.805Z,10.64
2019-04-16T03:26:18.962Z,10.63
2019-04-16T03:28:48.829Z,10.56
2019-04-16T03:31:22.933Z,10.56
2019-04-16T03:33:51.179Z,10.57
2019-04-16T03:36:21.038Z,10.59
2019-04-16T03:38:50.994Z,10.61
2019-04-16T03:41:20.869Z,10.58
2019-04-16T03:43:50.813Z,10.61
2019-04-16T03:46:20.875Z,10.60
2019-04-16T03:48:52.668Z,10.56
2019-04-16T03:51:22.657Z,10.57
2019-04-16T03:53:52.603Z,10.58
2019-04-16T03:56:22.539Z,10.57
2019-04-16T03:58:52.462Z,10.54
2019-04-16T04:01:22.337Z,10.54
2019-04-16T04:03:54.443Z,10.54
2019-04-16T04:06:24.120Z,10.53
2019-04-16T04:08:53.969Z,10.50
2019-04-16T04:11:23.835Z,10.48
2019-04-16T04:13:53.694Z,10.46
2019-04-16T04:16:23.561Z,10.49
2019-04-16T04:18:53.420Z,10.50
2019-04-16T04:21:23.277Z,10.50
2019-04-16T04:23:53.125Z,10.55
2019-04-16T04:26:23.006Z,10.54
2019-04-16T04:28:52.806Z,10.54
2019-04-16T04:31:22.936Z,10.50
2019-04-16T04:33:52.805Z,10.47
2019-04-16T04:36:26.705Z,10.43
2019-04-16T04:38:54.449Z,10.41
2019-04-16T04:41:24.637Z,10.40
2019-04-16T04:43:54.965Z,10.40
2019-04-16T04:46:26.313Z,10.37
2019-04-16T04:49:00.017Z,10.38
2019-04-16T04:51:27.947Z,10.36
2019-04-16T04:53:58.093Z,10.38
2019-04-16T04:56:28.647Z,10.36
2019-04-16T04:58:59.007Z,10.36
2019-04-16T05:01:28.936Z,10.35
2019-04-16T05:04:23.987Z,10.36
2019-04-16T05:06:57.245Z,10.32
2019-04-16T05:09:29.380Z,10.32
2019-04-16T05:11:59.320Z,10.30
2019-04-16T05:14:29.106Z,10.30
2019-04-16T05:16:58.995Z,10.29
2019-04-16T05:19:29.778Z,10.26
2019-04-16T05:22:02.686Z,10.26
2019-04-16T05:24:33.558Z,10.25
2019-04-16T05:27:05.471Z,10.26
2019-04-16T05:29:35.301Z,10.25
2019-04-16T05:32:05.521Z,10.26
2019-04-16T05:34:37.408Z,10.25
2019-04-16T05:37:07.310Z,10.25
2019-04-16T05:39:37.248Z,10.23
2019-04-16T05:42:07.188Z,10.20
2019-04-16T05:44:37.349Z,10.22
2019-04-16T05:47:07.220Z,10.23
2019-04-16T05:49:37.171Z,10.23
2019-04-16T05:52:07.112Z,10.23
2019-04-16T05:54:55.047Z,10.25
2019-04-16T05:57:30.539Z,10.26
2019-04-16T06:00:03.339Z,10.28
2019-04-16T06:02:39.042Z,10.27
2019-04-16T06:05:09.373Z,10.26
2019-04-16T06:07:39.709Z,10.30
2019-04-16T06:10:10.289Z,10.33
2019-04-16T06:13:09.457Z,10.40
2019-04-16T06:15:50.260Z,10.46
2019-04-16T06:18:39.853Z,10.49
2019-04-16T06:21:31.691Z,10.53
2019-04-16T06:24:12.295Z,10.57
2019-04-16T06:26:55.207Z,10.61
2019-04-16T06:29:39.079Z,10.63
2019-04-16T06:32:17.346Z,10.66
2019-04-16T06:35:04.890Z,10.69
2019-04-16T06:38:00.298Z,10.71
2019-04-16T06:40:37.896Z,10.76
2019-04-16T06:43:25.248Z,10.80
2019-04-16T06:46:10.082Z,10.85
2019-04-16T06:48:54.160Z,10.91
2019-04-16T06:51:45.741Z,10.97
2019-04-16T06:54:34.609Z,11.01
2019-04-16T06:57:29.576Z,11.05
2019-04-16T07:00:13.726Z,11.11
2019-04-16T07:03:02.642Z,11.19
2019-04-16T07:05:48.192Z,11.26
2019-04-16T07:08:37.470Z,11.33
2019-04-16T07:11:01.767Z,11.37
2019-04-16T07:13:31.635Z,11.42
2019-04-16T07:16:01.788Z,11.47
2019-04-16T07:18:31.728Z,11.51
2019-04-16T07:21:02.720Z,11.56
2019-04-16T07:23:32.791Z,11.63
2019-04-16T07:26:03.721Z,11.69
2019-04-16T07:28:39.399Z,11.75
2019-04-16T07:31:31.815Z,11.81
2019-04-16T07:34:13.725Z,11.88
2019-04-16T07:37:11.550Z,11.95
2019-04-16T07:39:55.168Z,12.03
2019-04-16T07:42:51.184Z,12.09
2019-04-16T07:45:20.497Z,12.15
2019-04-16T07:48:06.239Z,12.22
2019-04-16T07:50:53.072Z,12.26
2019-04-16T07:53:47.464Z,12.33
2019-04-16T07:56:20.985Z,12.38
2019-04-16T07:58:51.029Z,12.45
2019-04-16T08:01:21.376Z,12.50
2019-04-16T08:03:51.594Z,12.54
2019-04-16T08:06:21.379Z,12.59
2019-04-16T08:08:53.991Z,12.66
2019-04-16T08:11:24.287Z,12.71
2019-04-16T08:13:54.521Z,12.76
2019-04-16T08:16:25.880Z,12.80
2019-04-16T08:18:55.781Z,12.86
2019-04-16T08:21:26.039Z,12.91
2019-04-16T08:24:01.542Z,12.98
2019-04-16T08:26:31.699Z,13.03
2019-04-16T08:29:01.637Z,13.08
2019-04-16T08:31:33.561Z,13.13
2019-04-16T08:34:03.671Z,13.17
2019-04-16T08:36:34.012Z,13.23
2019-04-16T08:39:07.601Z,13.26
2019-04-16T08:41:37.647Z,13.28
2019-04-16T08:44:10.088Z,13.32
2019-04-16T08:46:41.159Z,13.38
2019-04-16T08:49:14.793Z,13.42
2019-04-16T08:51:43.883Z,13.47
2019-04-16T08:54:17.963Z,13.49
2019-04-16T08:56:45.691Z,13.52
2019-04-16T08:59:15.937Z,13.56
2019-04-16T09:01:45.790Z,13.62
2019-04-16T09:04:16.198Z,13.65
2019-04-16T09:06:47.304Z,13.68
2019-04-16T09:09:37.166Z,13.73
2019-04-16T09:12:09.633Z,13.78
2019-04-16T09:14:46.070Z,13.82
2019-04-16T09:17:30.964Z,13.84
2019-04-16T09:20:18.737Z,13.88
2019-04-16T09:22:49.769Z,13.93
2019-04-16T09:25:38.208Z,13.99
2019-04-16T09:28:26.549Z,14.03
2019-04-16T09:31:22.151Z,14.07
2019-04-16T09:34:05.336Z,14.11
2019-04-16T09:36:56.317Z,14.17
2019-04-16T09:39:42.264Z,14.21
2019-04-16T09:42:12.192Z,14.25
2019-04-16T09:44:42.017Z,14.35
2019-04-16T09:47:13.608Z,14.41
2019-04-16T09:49:44.563Z,14.45
2019-04-16T09:52:14.414Z,14.51
2019-04-16T09:54:45.145Z,14.56
2019-04-16T09:57:16.280Z,14.61
2019-04-16T09:59:56.482Z,14.68
2019-04-16T10:02:29.394Z,14.75
2019-04-16T10:04:59.250Z,14.82
2019-04-16T10:07:29.291Z,14.90
2019-04-16T10:09:59.144Z,15.00
2019-04-16T10:12:29.077Z,15.05
2019-04-16T10:15:00.336Z,15.11
2019-04-16T10:17:30.306Z,15.18
2019-04-16T10:20:00.241Z,15.28
2019-04-16T10:22:30.145Z,15.39
2019-04-16T10:25:11.096Z,15.54
2019-04-16T10:27:43.312Z,15.70
2019-04-16T10:30:35.648Z,15.97
2019-04-16T10:33:05.649Z,16.23
2019-04-16T10:35:35.582Z,16.54
2019-04-16T10:38:19.511Z,16.76
2019-04-16T10:40:54.801Z,16.97
2019-04-16T10:43:44.990Z,17.16
2019-04-16T10:46:37.250Z,17.34
2019-04-16T10:49:26.082Z,17.51
2019-04-16T10:52:09.378Z,17.65
2019-04-16T10:54:43.701Z,17.81
2019-04-16T10:57:31.724Z,17.98
2019-04-16T11:00:19.701Z,18.08
2019-04-16T11:02:54.223Z,18.30
2019-04-16T11:05:32.431Z,18.45
2019-04-16T11:08:04.227Z,18.62
2019-04-16T11:10:34.760Z,18.75
2019-04-16T11:13:06.778Z,18.86
2019-04-16T11:15:37.578Z,19.02
2019-04-16T11:18:07.836Z,19.17
2019-04-16T11:20:38.024Z,19.30
2019-04-16T11:23:08.210Z,19.43
2019-04-16T11:25:38.554Z,19.57
2019-04-16T11:28:08.432Z,19.74
2019-04-16T11:30:41.132Z,19.84
2019-04-16T11:33:11.347Z,19.98
2019-04-16T11:35:41.419Z,20.17
2019-04-16T11:38:11.618Z,20.28
2019-04-16T11:40:41.828Z,20.51
2019-04-16T11:43:11.743Z,20.51
2019-04-16T11:45:41.693Z,20.61
2019-04-16T11:48:11.836Z,20.70
2019-04-16T11:50:41.754Z,20.83
2019-04-16T11:53:11.565Z,20.90
2019-04-16T11:55:41.566Z,20.97
2019-04-16T11:58:25.238Z,21.13
2019-04-16T12:01:00.284Z,21.13
2019-04-16T12:03:40.015Z,21.21
2019-04-16T12:06:31.634Z,21.32
2019-04-16T12:09:09.675Z,21.35
2019-04-16T12:11:44.691Z,21.54
2019-04-16T12:14:42.108Z,21.61
2019-04-16T12:17:15.229Z,21.78
2019-04-16T12:20:03.450Z,21.90
2019-04-16T12:22:44.177Z,22.22
2019-04-16T12:25:36.577Z,22.25
2019-04-16T12:28:26.850Z,22.25
2019-04-16T12:31:07.290Z,22.43
2019-04-16T12:33:54.182Z,22.51
2019-04-16T12:36:46.421Z,22.57
2019-04-16T12:39:31.931Z,22.63
2019-04-16T12:42:19.063Z,22.75
2019-04-16T12:44:55.130Z,22.85
2019-04-16T12:47:37.692Z,22.94
2019-04-16T12:50:17.880Z,23.05
2019-04-16T12:53:13.173Z,23.03
2019-04-16T12:56:05.857Z,22.99
2019-04-16T12:58:42.393Z,22.99
2019-04-16T13:01:19.770Z,23.00
2019-04-16T13:03:56.132Z,23.01
2019-04-16T13:06:54.158Z,23.00
2019-04-16T13:10:02.485Z,23.09
2019-04-16T13:12:45.850Z,23.23
2019-04-16T13:15:32.968Z,23.38
2019-04-16T13:18:24.866Z,23.56
2019-04-16T13:21:03.906Z,23.56
2019-04-16T13:23:37.215Z,23.69
2019-04-16T13:26:15.425Z,23.72
2019-04-16T13:28:45.724Z,23.73
2019-04-16T13:31:15.716Z,23.67
2019-04-16T13:33:47.209Z,23.77
2019-04-16T13:36:18.398Z,23.82
2019-04-16T13:38:53.790Z,23.89
2019-04-16T13:41:27.027Z,23.97
2019-04-16T13:44:00.411Z,24.14
2019-04-16T13:46:30.559Z,24.27
2019-04-16T13:49:09.610Z,24.31
2019-04-16T13:51:39.734Z,24.34
2019-04-16T13:54:37.570Z,24.40
2019-04-16T13:57:11.701Z,24.43
2019-04-16T14:00:04.377Z,24.49
2019-04-16T14:02:52.116Z,24.74
2019-04-16T14:05:24.431Z,24.94
2019-04-16T14:07:54.303Z,24.96
2019-04-16T14:10:24.265Z,24.94
2019-04-16T14:12:54.209Z,24.90
2019-04-16T14:15:32.227Z,24.89
2019-04-16T14:17:59.767Z,24.85
2019-04-16T14:20:28.911Z,24.76
2019-04-16T14:22:58.768Z,24.73
2019-04-16T14:25:28.753Z,24.59
2019-04-16T14:28:01.922Z,24.42
2019-04-16T14:30:39.581Z,24.23
2019-04-16T14:33:08.565Z,24.15
2019-04-16T14:35:40.510Z,24.05
2019-04-16T14:38:11.151Z,23.92
2019-04-16T14:40:42.363Z,23.73
2019-04-16T14:43:14.851Z,23.59
2019-04-16T14:45:58.363Z,23.47
2019-04-16T14:48:19.410Z,23.36
2019-04-16T14:50:49.651Z,23.26
2019-04-16T14:53:36.176Z,23.19
2019-04-16T14:56:30.833Z,23.09
2019-04-16T14:59:05.811Z,23.01
2019-04-16T15:02:00.971Z,22.82
2019-04-16T15:04:40.168Z,22.73
2019-04-16T15:07:28.396Z,22.74
2019-04-16T15:10:13.511Z,22.68
2019-04-16T15:13:02.452Z,22.77
2019-04-16T15:16:05.630Z,22.72
2019-04-16T15:18:32.037Z,22.61
2019-04-16T15:21:19.778Z,22.48
2019-04-16T15:24:08.751Z,22.49
2019-04-16T15:26:53.364Z,22.43
2019-04-16T15:29:44.810Z,22.40
2019-04-16T15:32:25.280Z,22.54
2019-04-16T15:34:55.998Z,22.60
2019-04-16T15:37:39.345Z,22.71
2019-04-16T15:40:15.191Z,22.70
2019-04-16T15:43:11.448Z,22.61
2019-04-16T15:46:25.288Z,22.46
2019-04-16T15:48:51.408Z,22.04
2019-04-16T15:51:30.230Z,22.04
2019-04-16T15:54:15.703Z,21.89
2019-04-16T15:56:52.285Z,21.71
2019-04-16T15:59:44.560Z,21.32
2019-04-16T16:02:33.688Z,21.32
2019-04-16T16:05:13.958Z,21.19
2019-04-16T16:07:57.253Z,21.05
2019-04-16T16:10:35.749Z,20.84
2019-04-16T16:13:05.899Z,20.65
2019-04-16T16:15:40.173Z,20.22
2019-04-16T16:18:08.732Z,20.22
2019-04-16T16:20:38.935Z,19.81
2019-04-16T16:23:10.002Z,19.63
2019-04-16T16:25:41.407Z,19.57
2019-04-16T16:28:11.574Z,19.61
2019-04-16T16:30:41.538Z,19.48
2019-04-16T16:33:11.349Z,19.47
2019-04-16T16:35:56.581Z,19.66
2019-04-16T16:38:14.198Z,19.79
2019-04-16T16:40:49.437Z,19.89
2019-04-16T16:43:17.481Z,19.97
2019-04-16T16:46:00.907Z,19.98
2019-04-16T16:48:30.984Z,19.89
2019-04-16T16:51:00.846Z,19.83
2019-04-16T16:53:48.405Z,19.76
2019-04-16T16:56:26.248Z,19.75
2019-04-16T16:59:01.203Z,19.69
2019-04-16T17:01:54.552Z,19.59
2019-04-16T17:04:30.098Z,19.25
2019-04-16T17:07:00.906Z,19.21
2019-04-16T17:09:37.210Z,19.07
2019-04-16T17:12:07.168Z,18.82
2019-04-16T17:14:38.033Z,18.66
2019-04-16T17:17:14.356Z,18.55
2019-04-16T17:19:41.186Z,18.45
2019-04-16T17:22:14.627Z,18.37
2019-04-16T17:24:43.080Z,18.34
2019-04-16T17:27:14.314Z,18.30
2019-04-16T17:29:46.651Z,18.22
2019-04-16T17:32:16.912Z,18.16
2019-04-16T17:34:46.781Z,18.05
2019-04-16T17:37:17.046Z,17.99
2019-04-16T17:40:00.173Z,17.85
2019-04-16T17:42:37.008Z,17.78
2019-04-16T17:45:25.365Z,17.74
2019-04-16T17:48:10.633Z,17.63
2019-04-16T17:50:58.540Z,17.57
2019-04-16T17:53:50.751Z,17.52
2019-04-16T17:56:58.026Z,17.48
2019-04-16T17:59:33.881Z,17.43
2019-04-16T18:02:25.013Z,17.35
2019-04-16T18:05:12.157Z,17.32
2019-04-16T18:07:59.855Z,17.27
2019-04-16T18:10:40.100Z,17.26
2019-04-16T18:13:15.601Z,17.25
2019-04-16T18:16:19.646Z,17.22
2019-04-16T18:19:03.167Z,17.22
2019-04-16T18:21:46.304Z,17.20
2019-04-16T18:24:34.832Z,17.17
2019-04-16T18:27:11.219Z,17.14
2019-04-16T18:29:52.166Z,17.10
2019-04-16T18:32:40.183Z,17.11
2019-04-16T18:35:25.039Z,17.10
2019-04-16T18:38:04.925Z,17.07
2019-04-16T18:41:06.230Z,17.04
2019-04-16T18:43:54.246Z,16.98
2019-04-16T18:46:46.148Z,16.90
2019-04-16T18:49:18.784Z,16.82
2019-04-16T18:51:48.983Z,16.76
2019-04-16T18:54:18.852Z,16.76
2019-04-16T18:56:49.111Z,16.73
2019-04-16T18:59:18.964Z,16.75
2019-04-16T19:01:51.175Z,16.77
2019-04-16T19:04:21.253Z,16.77
2019-04-16T19:06:51.633Z,16.76
2019-04-16T19:09:21.510Z,16.79
2019-04-16T19:11:51.496Z,16.80
2019-04-16T19:14:21.513Z,16.78
2019-04-16T19:16:51.462Z,16.77
2019-04-16T19:19:22.287Z,16.75
2019-04-16T19:21:53.097Z,16.74
2019-04-16T19:24:23.130Z,16.71
2019-04-16T19:26:52.983Z,16.66
2019-04-16T19:29:22.869Z,16.59
2019-04-16T19:31:56.738Z,16.57
2019-04-16T19:34:24.758Z,16.50
2019-04-16T19:36:56.273Z,16.47
2019-04-16T19:39:26.728Z,16.45
2019-04-16T19:41:58.130Z,16.41
2019-04-16T19:44:33.218Z,16.33
2019-04-16T19:47:00.860Z,16.29
2019-04-16T19:49:30.751Z,16.24
2019-04-16T19:52:00.596Z,16.17
2019-04-16T19:54:31.822Z,16.12
2019-04-16T19:57:01.900Z,16.10
2019-04-16T19:59:31.868Z,16.09
2019-04-16T20:02:02.385Z,16.06
2019-04-16T20:04:32.260Z,16.02
2019-04-16T20:07:02.444Z,16.01
2019-04-16T20:09:32.486Z,16.03
2019-04-16T20:12:02.448Z,16.01
2019-04-16T20:14:35.264Z,16.00
2019-04-16T20:17:03.926Z,15.99
2019-04-16T20:19:36.266Z,15.94
2019-04-16T20:22:06.129Z,15.90
2019-04-16T20:24:35.993Z,15.84
2019-04-16T20:27:07.008Z,15.79
2019-04-16T20:29:36.984Z,15.74
2019-04-16T20:32:07.946Z,15.68
2019-04-16T20:34:37.910Z,15.67
2019-04-16T20:37:07.785Z,15.66
2019-04-16T20:39:40.772Z,15.59
2019-04-16T20:42:09.702Z,15.53
2019-04-16T20:44:40.551Z,15.47
2019-04-16T20:47:10.338Z,15.43
2019-04-16T20:49:40.271Z,15.36
2019-04-16T20:52:10.198Z,15.36
2019-04-16T20:54:44.295Z,15.35
2019-04-16T20:57:15.465Z,15.36
2019-04-16T20:59:45.318Z,15.34
2019-04-16T21:02:15.710Z,15.33
2019-04-16T21:04:45.758Z,15.29
2019-04-16T21:07:15.699Z,15.26
2019-04-16T21:09:45.586Z,15.20
2019-04-16T21:12:15.780Z,15.17
2019-04-16T21:14:45.763Z,15.12
2019-04-16T21:17:16.290Z,15.12
2019-04-16T21:19:47.896Z,15.09
2019-04-16T21:22:18.823Z,15.04
2019-04-16T21:24:49.033Z,15.01
2019-04-16T21:27:18.988Z,14.97
2019-04-16T21:29:48.932Z,14.94
2019-04-16T21:32:37.070Z,14.97
2019-04-16T21:35:13.560Z,14.99
2019-04-16T21:38:05.342Z,15.00
2019-04-16T21:40:35.156Z,14.99
2019-04-16T21:43:07.724Z,14.98
2019-04-16T21:45:36.764Z,14.98
2019-04-16T21:48:06.691Z,14.99
2019-04-16T21:50:36.547Z,14.99
2019-04-16T21:53:06.402Z,15.01
2019-04-16T21:55:36.705Z,15.05
2019-04-16T21:58:07.098Z,15.06
2019-04-16T22:01:05.205Z,15.06
2019-04-16T22:03:41.783Z,15.06
2019-04-16T22:06:08.429Z,15.02
2019-04-16T22:08:38.414Z,15.01
2019-04-16T22:11:11.772Z,15.01
2019-04-16T22:13:39.783Z,14.99
2019-04-16T22:16:09.730Z,14.98
2019-04-16T22:18:41.536Z,14.92
2019-04-16T22:21:11.351Z,14.87
2019-04-16T22:23:41.811Z,14.83
2019-04-16T22:26:11.716Z,14.78
2019-04-16T22:28:44.390Z,14.74
2019-04-16T22:31:13.546Z,14.71
2019-04-16T22:33:43.533Z,14.68
2019-04-16T22:36:13.452Z,14.64
2019-04-16T22:38:46.534Z,14.60
2019-04-16T22:41:35.045Z,14.58
2019-04-16T22:44:22.655Z,14.58
2019-04-16T22:46:56.361Z,14.58
2019-04-16T22:49:26.356Z,14.57
2019-04-16T22:51:57.656Z,14.55
2019-04-16T22:54:27.575Z,14.54
2019-04-16T22:57:16.285Z,14.55
2019-04-16T22:59:46.446Z,14.53
2019-04-16T23:02:21.618Z,14.53
2019-04-16T23:04:51.468Z,14.53
2019-04-16T23:07:21.432Z,14.51
2019-04-16T23:09:51.448Z,14.52
2019-04-16T23:12:21.449Z,14.53
2019-04-16T23:14:51.767Z,14.54
2019-04-16T23:17:24.875Z,14.55
2019-04-16T23:19:55.531Z,14.54
2019-04-16T23:22:26.431Z,14.53
2019-04-16T23:24:56.510Z,14.52
2019-04-16T23:27:26.832Z,14.53
2019-04-16T23:29:56.723Z,14.52
2019-04-16T23:32:28.618Z,14.52
2019-04-16T23:34:58.564Z,14.53
2019-04-16T23:37:28.801Z,14.54
2019-04-16T23:39:59.111Z,14.53
2019-04-16T23:42:29.016Z,14.56
2019-04-16T23:45:36.379Z,14.55
2019-04-16T23:48:17.712Z,14.53
2019-04-16T23:50:55.786Z,14.53
2019-04-16T23:53:43.428Z,14.52
2019-04-16T23:56:31.256Z,14.51
2019-04-16T23:59:14.261Z,14.49
